Harle — ZCTV4 — position and weather

sailwx.info

Track history (hours):
 
Tides and Currents Weather Stations Pressure Air Temp Water Temp Dewpoint Dewpoint Depression Visibility Wind Speed Wind Dir Waves Ship Positions

Harle

Last reported at 2016-Jul-26 10:31 UTC. Time now 2016-Jul-26 14:09 UTC.
Position N 43°42' E 007°21'.

Length 45 m; draft 2.7 m.

Type: Pleasure craft. MMSI: 319323000.

Date/timePositionNaut miles runAvg speedWind from/ knotsBaromVisibWave heightAir tempDewpointWater temp
2016-Jul-26 10:31N 43°42' E 007°21'5 0.6
2016-Jul-26 02:25N 43°44' E 007°26'0 0.0
2016-Jul-25 18:10N 43°44' E 007°26'5 6.5
2016-Jul-25 17:29N 43°41' E 007°21'0 0.0
2016-Jul-25 15:20N 43°41' E 007°21'0 0.0
2016-Jul-25 14:32N 43°41' E 007°21'0 0.0
2016-Jul-25 11:08N 43°41' E 007°21'3 4.4
2016-Jul-25 10:32N 43°42' E 007°17'0 0.2
2016-Jul-25 09:32N 43°42' E 007°17'0 0.0
2016-Jul-25 08:26N 43°42' E 007°17'0 0.0
2016-Jul-25 06:08N 43°42' E 007°17'0 0.0
2016-Jul-25 04:32N 43°42' E 007°17'0 0.0
2016-Jul-25 03:26N 43°42' E 007°17'0 0.0
2016-Jul-25 02:26N 43°42' E 007°17'0 0.0
2016-Jul-25 01:32N 43°42' E 007°17'0 0.0
2016-Jul-25 00:20N 43°42' E 007°17'0 0.0
2016-Jul-24 23:20N 43°42' E 007°17'0 0.0
2016-Jul-24 22:14N 43°42' E 007°17'0 0.0
2016-Jul-24 21:26N 43°42' E 007°17'0 0.0
2016-Jul-24 20:20N 43°42' E 007°17'0 0.0
2016-Jul-24 18:08N 43°42' E 007°17'0 0.0
2016-Jul-24 17:14N 43°42' E 007°17'0 0.0
2016-Jul-24 15:14N 43°42' E 007°17'1 0.9
2016-Jul-24 14:30N 43°41' E 007°17'1212.4
2016-Jul-24 13:34N 43°32' E 007°07'2 1.4
2016-Jul-24 12:29N 43°34' E 007°07'0 0.0
2016-Jul-24 11:29N 43°34' E 007°07'0 0.0
2016-Jul-24 10:23N 43°34' E 007°07'0 0.0
2016-Jul-24 09:29N 43°34' E 007°07'5 5.7
2016-Jul-24 08:33N 43°30' E 007°02'4 3.9
2016-Jul-24 07:33N 43°31' E 006°57'0 0.0
2016-Jul-24 06:33N 43°31' E 006°57'0 0.0
2016-Jul-24 05:33N 43°31' E 006°57'0 0.0
2016-Jul-24 04:33N 43°31' E 006°57'0 0.0
2016-Jul-24 02:15N 43°31' E 006°57'0 0.0
2016-Jul-24 01:27N 43°31' E 006°57'0 0.0
2016-Jul-23 22:27N 43°31' E 006°57'0 0.0
2016-Jul-23 21:27N 43°31' E 006°57'0 0.0
2016-Jul-23 20:33N 43°31' E 006°57'0 0.0
2016-Jul-23 19:33N 43°31' E 006°57'0 0.0
2016-Jul-23 18:30N 43°31' E 006°57'0 0.0
2016-Jul-23 17:33N 43°31' E 006°57'0 0.0
2016-Jul-23 16:33N 43°31' E 006°57'0 0.0
2016-Jul-23 15:33N 43°31' E 006°57'0 0.0
2016-Jul-23 14:33N 43°31' E 006°57'0 0.0
2016-Jul-23 13:33N 43°31' E 006°57'0 0.0
2016-Jul-23 12:15N 43°31' E 006°57'0 0.0
2016-Jul-23 11:21N 43°31' E 006°57'0 0.0
2016-Jul-23 10:24N 43°31' E 006°57'0 0.0
2016-Jul-23 09:27N 43°31' E 006°57'0 0.0
2016-Jul-23 08:27N 43°31' E 006°57'0 0.0
2016-Jul-23 07:27N 43°31' E 006°57'0 0.0
2016-Jul-23 06:27N 43°31' E 006°57'0 0.0
2016-Jul-23 04:33N 43°31' E 006°57'0 0.0
2016-Jul-23 03:33N 43°31' E 006°57'0 0.0
2016-Jul-23 02:33N 43°31' E 006°57'0 0.0
2016-Jul-23 01:33N 43°31' E 006°57'0 0.0
2016-Jul-23 00:33N 43°31' E 006°57'0 0.0
2016-Jul-22 23:33N 43°31' E 006°57'0 0.0
2016-Jul-22 22:33N 43°31' E 006°57'0 0.0
2016-Jul-22 21:33N 43°31' E 006°57'0 0.0
2016-Jul-22 20:33N 43°31' E 006°57'0 0.0
2016-Jul-22 19:09N 43°31' E 006°57'0 0.0
2016-Jul-22 18:24N 43°31' E 006°57'0 0.0
2016-Jul-22 17:27N 43°31' E 006°57'0 0.3
2016-Jul-22 16:33N 43°31' E 006°57'4 3.0
2016-Jul-22 15:22N 43°32' E 007°01'0 0.0
2016-Jul-22 14:25N 43°32' E 007°01'0 0.0
2016-Jul-22 13:25N 43°32' E 007°01'0 0.0
2016-Jul-22 12:32N 43°32' E 007°01'8 8.7
2016-Jul-22 11:34N 43°25' E 007°07'20 8.3
2016-Jul-22 09:06N 43°18' E 006°41'3 0.2
2016-Jul-21 12:03N 43°14' E 006°40'0 0.0
2016-Jul-21 11:33N 43°14' E 006°40'17 0.8
2016-Jul-20 14:14N 43°26' E 006°57'710.5
2016-Jul-20 13:34N 43°33' E 007°01'0 0.2
2016-Jul-20 12:32N 43°33' E 007°01'0 0.1
2016-Jul-20 11:33N 43°33' E 007°01'7 7.0
2016-Jul-20 10:33N 43°34' E 007°11'1312.7
2016-Jul-20 09:32N 43°42' E 007°24'3 1.1
2016-Jul-20 07:11N 43°44' E 007°26'0 0.0
2016-Jul-20 05:32N 43°44' E 007°26'0 0.0
2016-Jul-20 04:32N 43°44' E 007°26'0 0.0
2016-Jul-20 03:26N 43°44' E 007°26'0 0.0
2016-Jul-19 21:17N 43°44' E 007°26'0 0.0
2016-Jul-19 18:05N 43°44' E 007°26'0 0.0
2016-Jul-19 17:32N 43°44' E 007°26'0 0.0
2016-Jul-19 16:23N 43°44' E 007°26'0 0.4
2016-Jul-19 15:24N 43°44' E 007°26'0 0.1
2016-Jul-19 10:33N 43°44' E 007°26'0 0.0
2016-Jul-19 09:33N 43°44' E 007°26'0 0.0
2016-Jul-19 08:31N 43°44' E 007°26'0 0.0
2016-Jul-19 07:12N 43°44' E 007°26'0 0.0
2016-Jul-19 06:27N 43°44' E 007°26'5 0.3
2016-Jul-18 17:08N 43°41' E 007°21'0 0.0
2016-Jul-18 09:12N 43°41' E 007°21'11 5.8
2016-Jul-18 07:19N 43°31' E 007°23'1012.7
2016-Jul-18 06:33N 43°39' E 007°18'3 2.5
2016-Jul-18 05:32N 43°42' E 007°17'0 0.0
2016-Jul-18 04:32N 43°42' E 007°17'0 0.0
2016-Jul-18 03:32N 43°42' E 007°17'0 0.0
2016-Jul-18 02:20N 43°42' E 007°17'0 0.0
2016-Jul-18 01:26N 43°42' E 007°17'0 0.0
2016-Jul-18 00:32N 43°42' E 007°17'0 0.0
2016-Jul-17 23:32N 43°42' E 007°17'0 0.0
2016-Jul-17 22:20N 43°42' E 007°17'0 0.0
2016-Jul-17 21:26N 43°42' E 007°17'0 0.0
2016-Jul-17 17:31N 43°42' E 007°17'9 9.1
2016-Jul-17 16:33N 43°36' E 007°09'1 1.0
2016-Jul-17 15:33N 43°35' E 007°08'0 0.0
2016-Jul-17 14:33N 43°35' E 007°08'0 0.0
2016-Jul-17 13:33N 43°35' E 007°08'0 0.0
2016-Jul-17 12:33N 43°35' E 007°08'0 0.0
2016-Jul-17 11:33N 43°35' E 007°08'0 0.0
2016-Jul-17 10:33N 43°35' E 007°08'0 0.1
2016-Jul-17 09:33N 43°35' E 007°08'7 7.3
2016-Jul-17 08:33N 43°30' E 007°00'3 2.5
2016-Jul-17 07:23N 43°31' E 006°57'0 0.0
2016-Jul-17 06:32N 43°31' E 006°57'0 0.0
2016-Jul-17 02:26N 43°31' E 006°57'0 0.0
2016-Jul-17 01:29N 43°31' E 006°57'0 0.0
2016-Jul-17 00:26N 43°31' E 006°57'0 0.0
2016-Jul-16 23:29N 43°31' E 006°57'0 0.0
2016-Jul-16 21:20N 43°31' E 006°57'0 0.0
2016-Jul-16 20:32N 43°31' E 006°57'0 0.0
2016-Jul-16 18:20N 43°31' E 006°57'0 0.0
2016-Jul-16 17:32N 43°31' E 006°57'1 0.3
2016-Jul-16 15:05N 43°31' E 006°57'0 0.0
2016-Jul-16 14:32N 43°31' E 006°57'0 0.1
2016-Jul-16 13:32N 43°31' E 006°57'0 0.1
2016-Jul-16 12:27N 43°31' E 006°57'8 9.1
2016-Jul-16 11:34N 43°23' E 006°52'  
Track history (hours):
 
Tides and Currents Weather Stations Pressure Air Temp Water Temp Dewpoint Dewpoint Depression Visibility Wind Speed Wind Dir Waves Ship Positions

Harle

Last reported at 2016-Jul-26 10:31 UTC. Time now 2016-Jul-26 14:09 UTC.
Position N 43°42' E 007°21'.

Length 45 m; draft 2.7 m.

Type: Pleasure craft. MMSI: 319323000.

Date/timePositionNaut miles runAvg speedWind from/ knotsBaromVisibWave heightAir tempDewpointWater temp
2016-Jul-26 10:31N 43°42' E 007°21'5 0.6
2016-Jul-26 02:25N 43°44' E 007°26'0 0.0
2016-Jul-25 18:10N 43°44' E 007°26'5 6.5
2016-Jul-25 17:29N 43°41' E 007°21'0 0.0
2016-Jul-25 15:20N 43°41' E 007°21'0 0.0
2016-Jul-25 14:32N 43°41' E 007°21'0 0.0
2016-Jul-25 11:08N 43°41' E 007°21'3 4.4
2016-Jul-25 10:32N 43°42' E 007°17'0 0.2
2016-Jul-25 09:32N 43°42' E 007°17'0 0.0
2016-Jul-25 08:26N 43°42' E 007°17'0 0.0
2016-Jul-25 06:08N 43°42' E 007°17'0 0.0
2016-Jul-25 04:32N 43°42' E 007°17'0 0.0
2016-Jul-25 03:26N 43°42' E 007°17'0 0.0
2016-Jul-25 02:26N 43°42' E 007°17'0 0.0
2016-Jul-25 01:32N 43°42' E 007°17'0 0.0
2016-Jul-25 00:20N 43°42' E 007°17'0 0.0
2016-Jul-24 23:20N 43°42' E 007°17'0 0.0
2016-Jul-24 22:14N 43°42' E 007°17'0 0.0
2016-Jul-24 21:26N 43°42' E 007°17'0 0.0
2016-Jul-24 20:20N 43°42' E 007°17'0 0.0
2016-Jul-24 18:08N 43°42' E 007°17'0 0.0
2016-Jul-24 17:14N 43°42' E 007°17'0 0.0
2016-Jul-24 15:14N 43°42' E 007°17'1 0.9
2016-Jul-24 14:30N 43°41' E 007°17'1212.4
2016-Jul-24 13:34N 43°32' E 007°07'2 1.4
2016-Jul-24 12:29N 43°34' E 007°07'0 0.0
2016-Jul-24 11:29N 43°34' E 007°07'0 0.0
2016-Jul-24 10:23N 43°34' E 007°07'0 0.0
2016-Jul-24 09:29N 43°34' E 007°07'5 5.7
2016-Jul-24 08:33N 43°30' E 007°02'4 3.9
2016-Jul-24 07:33N 43°31' E 006°57'0 0.0
2016-Jul-24 06:33N 43°31' E 006°57'0 0.0
2016-Jul-24 05:33N 43°31' E 006°57'0 0.0
2016-Jul-24 04:33N 43°31' E 006°57'0 0.0
2016-Jul-24 02:15N 43°31' E 006°57'0 0.0
2016-Jul-24 01:27N 43°31' E 006°57'0 0.0
2016-Jul-23 22:27N 43°31' E 006°57'0 0.0
2016-Jul-23 21:27N 43°31' E 006°57'0 0.0
2016-Jul-23 20:33N 43°31' E 006°57'0 0.0
2016-Jul-23 19:33N 43°31' E 006°57'0 0.0
2016-Jul-23 18:30N 43°31' E 006°57'0 0.0
2016-Jul-23 17:33N 43°31' E 006°57'0 0.0
2016-Jul-23 16:33N 43°31' E 006°57'0 0.0
2016-Jul-23 15:33N 43°31' E 006°57'0 0.0
2016-Jul-23 14:33N 43°31' E 006°57'0 0.0
2016-Jul-23 13:33N 43°31' E 006°57'0 0.0
2016-Jul-23 12:15N 43°31' E 006°57'0 0.0
2016-Jul-23 11:21N 43°31' E 006°57'0 0.0
2016-Jul-23 10:24N 43°31' E 006°57'0 0.0
2016-Jul-23 09:27N 43°31' E 006°57'0 0.0
2016-Jul-23 08:27N 43°31' E 006°57'0 0.0
2016-Jul-23 07:27N 43°31' E 006°57'0 0.0
2016-Jul-23 06:27N 43°31' E 006°57'0 0.0
2016-Jul-23 04:33N 43°31' E 006°57'0 0.0
2016-Jul-23 03:33N 43°31' E 006°57'0 0.0
2016-Jul-23 02:33N 43°31' E 006°57'0 0.0
2016-Jul-23 01:33N 43°31' E 006°57'0 0.0
2016-Jul-23 00:33N 43°31' E 006°57'0 0.0
2016-Jul-22 23:33N 43°31' E 006°57'0 0.0
2016-Jul-22 22:33N 43°31' E 006°57'0 0.0
2016-Jul-22 21:33N 43°31' E 006°57'0 0.0
2016-Jul-22 20:33N 43°31' E 006°57'0 0.0
2016-Jul-22 19:09N 43°31' E 006°57'0 0.0
2016-Jul-22 18:24N 43°31' E 006°57'0 0.0
2016-Jul-22 17:27N 43°31' E 006°57'0 0.3
2016-Jul-22 16:33N 43°31' E 006°57'4 3.0
2016-Jul-22 15:22N 43°32' E 007°01'0 0.0
2016-Jul-22 14:25N 43°32' E 007°01'0 0.0
2016-Jul-22 13:25N 43°32' E 007°01'0 0.0
2016-Jul-22 12:32N 43°32' E 007°01'8 8.7
2016-Jul-22 11:34N 43°25' E 007°07'20 8.3
2016-Jul-22 09:06N 43°18' E 006°41'3 0.2
2016-Jul-21 12:03N 43°14' E 006°40'0 0.0
2016-Jul-21 11:33N 43°14' E 006°40'17 0.8
2016-Jul-20 14:14N 43°26' E 006°57'710.5
2016-Jul-20 13:34N 43°33' E 007°01'0 0.2
2016-Jul-20 12:32N 43°33' E 007°01'0 0.1
2016-Jul-20 11:33N 43°33' E 007°01'7 7.0
2016-Jul-20 10:33N 43°34' E 007°11'1312.7
2016-Jul-20 09:32N 43°42' E 007°24'3 1.1
2016-Jul-20 07:11N 43°44' E 007°26'0 0.0
2016-Jul-20 05:32N 43°44' E 007°26'0 0.0
2016-Jul-20 04:32N 43°44' E 007°26'0 0.0
2016-Jul-20 03:26N 43°44' E 007°26'0 0.0
2016-Jul-19 21:17N 43°44' E 007°26'0 0.0
2016-Jul-19 18:05N 43°44' E 007°26'0 0.0
2016-Jul-19 17:32N 43°44' E 007°26'0 0.0
2016-Jul-19 16:23N 43°44' E 007°26'0 0.4
2016-Jul-19 15:24N 43°44' E 007°26'0 0.1
2016-Jul-19 10:33N 43°44' E 007°26'0 0.0
2016-Jul-19 09:33N 43°44' E 007°26'0 0.0
2016-Jul-19 08:31N 43°44' E 007°26'0 0.0
2016-Jul-19 07:12N 43°44' E 007°26'0 0.0
2016-Jul-19 06:27N 43°44' E 007°26'5 0.3
2016-Jul-18 17:08N 43°41' E 007°21'0 0.0
2016-Jul-18 09:12N 43°41' E 007°21'11 5.8
2016-Jul-18 07:19N 43°31' E 007°23'1012.7
2016-Jul-18 06:33N 43°39' E 007°18'3 2.5
2016-Jul-18 05:32N 43°42' E 007°17'0 0.0
2016-Jul-18 04:32N 43°42' E 007°17'0 0.0
2016-Jul-18 03:32N 43°42' E 007°17'0 0.0
2016-Jul-18 02:20N 43°42' E 007°17'0 0.0
2016-Jul-18 01:26N 43°42' E 007°17'0 0.0
2016-Jul-18 00:32N 43°42' E 007°17'0 0.0
2016-Jul-17 23:32N 43°42' E 007°17'0 0.0
2016-Jul-17 22:20N 43°42' E 007°17'0 0.0
2016-Jul-17 21:26N 43°42' E 007°17'0 0.0
2016-Jul-17 17:31N 43°42' E 007°17'9 9.1
2016-Jul-17 16:33N 43°36' E 007°09'1 1.0
2016-Jul-17 15:33N 43°35' E 007°08'0 0.0
2016-Jul-17 14:33N 43°35' E 007°08'0 0.0
2016-Jul-17 13:33N 43°35' E 007°08'0 0.0
2016-Jul-17 12:33N 43°35' E 007°08'0 0.0
2016-Jul-17 11:33N 43°35' E 007°08'0 0.0
2016-Jul-17 10:33N 43°35' E 007°08'0 0.1
2016-Jul-17 09:33N 43°35' E 007°08'7 7.3
2016-Jul-17 08:33N 43°30' E 007°00'3 2.5
2016-Jul-17 07:23N 43°31' E 006°57'0 0.0
2016-Jul-17 06:32N 43°31' E 006°57'0 0.0
2016-Jul-17 02:26N 43°31' E 006°57'0 0.0
2016-Jul-17 01:29N 43°31' E 006°57'0 0.0
2016-Jul-17 00:26N 43°31' E 006°57'0 0.0
2016-Jul-16 23:29N 43°31' E 006°57'0 0.0
2016-Jul-16 21:20N 43°31' E 006°57'0 0.0
2016-Jul-16 20:32N 43°31' E 006°57'0 0.0
2016-Jul-16 18:20N 43°31' E 006°57'0 0.0
2016-Jul-16 17:32N 43°31' E 006°57'1 0.3
2016-Jul-16 15:05N 43°31' E 006°57'0 0.0
2016-Jul-16 14:32N 43°31' E 006°57'0 0.1
2016-Jul-16 13:32N 43°31' E 006°57'0 0.1
2016-Jul-16 12:27N 43°31' E 006°57'8 9.1
2016-Jul-16 11:34N 43°23' E 006°52'  

Dump ship's entire track history